sensor_id;sensor_type;location;lat;lon;timestamp;temperature;humidity
9450;DHT22;4763;48.370;10.874;2022-09-30T00:01:32;8.90;99.90
9450;DHT22;4763;48.370;10.874;2022-09-30T00:04:00;8.80;99.90
9450;DHT22;4763;48.370;10.874;2022-09-30T00:06:28;8.80;99.90
9450;DHT22;4763;48.370;10.874;2022-09-30T00:08:57;8.80;99.90
9450;DHT22;4763;48.370;10.874;2022-09-30T00:11:27;8.70;99.90
9450;DHT22;4763;48.370;10.874;2022-09-30T00:13:55;8.70;99.90
9450;DHT22;4763;48.370;10.874;2022-09-30T00:16:25;8.60;99.90
9450;DHT22;4763;48.370;10.874;2022-09-30T00:18:54;8.50;99.90
9450;DHT22;4763;48.370;10.874;2022-09-30T00:21:21;8.50;99.90
9450;DHT22;4763;48.370;10.874;2022-09-30T00:23:48;8.40;99.90
9450;DHT22;4763;48.370;10.874;2022-09-30T00:26:17;8.40;99.90
9450;DHT22;4763;48.370;10.874;2022-09-30T00:28:49;8.30;99.90
9450;DHT22;4763;48.370;10.874;2022-09-30T00:31:18;8.30;99.90
9450;DHT22;4763;48.370;10.874;2022-09-30T00:33:45;8.20;99.90
9450;DHT22;4763;48.370;10.874;2022-09-30T00:36:31;8.20;99.90
9450;DHT22;4763;48.370;10.874;2022-09-30T00:38:58;8.10;99.90
9450;DHT22;4763;48.370;10.874;2022-09-30T00:41:25;8.10;99.90
9450;DHT22;4763;48.370;10.874;2022-09-30T00:43:54;8.10;99.90
9450;DHT22;4763;48.370;10.874;2022-09-30T00:46:27;8.10;99.90
9450;DHT22;4763;48.370;10.874;2022-09-30T00:48:57;8.00;99.90
9450;DHT22;4763;48.370;10.874;2022-09-30T00:51:29;8.00;99.90
9450;DHT22;4763;48.370;10.874;2022-09-30T00:53:59;8.10;99.90
9450;DHT22;4763;48.370;10.874;2022-09-30T00:56:28;8.20;99.90
9450;DHT22;4763;48.370;10.874;2022-09-30T00:59:02;8.10;99.90
9450;DHT22;4763;48.370;10.874;2022-09-30T01:01:31;8.10;99.90
9450;DHT22;4763;48.370;10.874;2022-09-30T01:04:00;8.10;99.90
9450;DHT22;4763;48.370;10.874;2022-09-30T01:06:28;8.10;99.90
9450;DHT22;4763;48.370;10.874;2022-09-30T01:08:55;8.10;99.90
9450;DHT22;4763;48.370;10.874;2022-09-30T01:11:23;8.10;99.90
9450;DHT22;4763;48.370;10.874;2022-09-30T01:13:52;8.20;99.90
9450;DHT22;4763;48.370;10.874;2022-09-30T01:16:31;8.10;99.90
9450;DHT22;4763;48.370;10.874;2022-09-30T01:19:12;8.10;99.90
9450;DHT22;4763;48.370;10.874;2022-09-30T01:22:12;8.20;99.90
9450;DHT22;4763;48.370;10.874;2022-09-30T01:24:55;8.20;99.90
9450;DHT22;4763;48.370;10.874;2022-09-30T01:27:46;8.10;99.90
9450;DHT22;4763;48.370;10.874;2022-09-30T01:30:18;8.20;99.90
9450;DHT22;4763;48.370;10.874;2022-09-30T01:33:18;8.20;99.90
9450;DHT22;4763;48.370;10.874;2022-09-30T01:36:04;8.20;99.90
9450;DHT22;4763;48.370;10.874;2022-09-30T01:38:42;8.20;99.90
9450;DHT22;4763;48.370;10.874;2022-09-30T01:41:19;8.20;99.90
9450;DHT22;4763;48.370;10.874;2022-09-30T01:43:55;8.20;99.90
9450;DHT22;4763;48.370;10.874;2022-09-30T01:46:29;8.20;99.90
9450;DHT22;4763;48.370;10.874;2022-09-30T01:49:07;8.20;99.90
9450;DHT22;4763;48.370;10.874;2022-09-30T01:51:41;8.20;99.90
9450;DHT22;4763;48.370;10.874;2022-09-30T01:54:16;8.20;99.90
9450;DHT22;4763;48.370;10.874;2022-09-30T01:56:46;8.20;99.90
9450;DHT22;4763;48.370;10.874;2022-09-30T01:59:19;8.30;99.90
9450;DHT22;4763;48.370;10.874;2022-09-30T02:01:50;8.40;99.90
9450;DHT22;4763;48.370;10.874;2022-09-30T02:04:25;8.40;99.90
9450;DHT22;4763;48.370;10.874;2022-09-30T02:06:57;8.40;99.90
9450;DHT22;4763;48.370;10.874;2022-09-30T02:09:29;8.40;99.90
9450;DHT22;4763;48.370;10.874;2022-09-30T02:11:59;8.40;99.90
9450;DHT22;4763;48.370;10.874;2022-09-30T02:14:31;8.50;99.90
9450;DHT22;4763;48.370;10.874;2022-09-30T02:17:04;8.50;99.90
9450;DHT22;4763;48.370;10.874;2022-09-30T02:19:38;8.50;99.90
9450;DHT22;4763;48.370;10.874;2022-09-30T02:22:10;8.50;99.90
9450;DHT22;4763;48.370;10.874;2022-09-30T02:24:41;8.70;99.90
9450;DHT22;4763;48.370;10.874;2022-09-30T02:27:16;8.70;99.90
9450;DHT22;4763;48.370;10.874;2022-09-30T02:29:47;8.60;99.90
9450;DHT22;4763;48.370;10.874;2022-09-30T02:32:19;8.70;99.90
9450;DHT22;4763;48.370;10.874;2022-09-30T02:34:50;8.70;99.90
9450;DHT22;4763;48.370;10.874;2022-09-30T02:37:20;8.70;99.90
9450;DHT22;4763;48.370;10.874;2022-09-30T02:39:53;8.70;99.90
9450;DHT22;4763;48.370;10.874;2022-09-30T02:42:24;8.70;99.90
9450;DHT22;4763;48.370;10.874;2022-09-30T02:44:55;8.70;99.90
9450;DHT22;4763;48.370;10.874;2022-09-30T02:47:27;8.70;99.90
9450;DHT22;4763;48.370;10.874;2022-09-30T02:50:00;8.70;99.90
9450;DHT22;4763;48.370;10.874;2022-09-30T02:52:35;8.70;99.90
9450;DHT22;4763;48.370;10.874;2022-09-30T02:55:15;8.70;99.90
9450;DHT22;4763;48.370;10.874;2022-09-30T02:57:53;8.70;99.90
9450;DHT22;4763;48.370;10.874;2022-09-30T03:00:32;8.70;99.90
9450;DHT22;4763;48.370;10.874;2022-09-30T03:03:03;8.70;99.90
9450;DHT22;4763;48.370;10.874;2022-09-30T03:05:41;8.80;99.90
9450;DHT22;4763;48.370;10.874;2022-09-30T03:08:11;8.80;99.90
9450;DHT22;4763;48.370;10.874;2022-09-30T03:10:38;8.70;99.90
9450;DHT22;4763;48.370;10.874;2022-09-30T03:13:17;8.80;99.90
9450;DHT22;4763;48.370;10.874;2022-09-30T03:15:54;8.80;99.90
9450;DHT22;4763;48.370;10.874;2022-09-30T03:18:55;8.80;99.90
9450;DHT22;4763;48.370;10.874;2022-09-30T03:21:36;8.80;99.90
9450;DHT22;4763;48.370;10.874;2022-09-30T03:24:29;8.80;99.90
9450;DHT22;4763;48.370;10.874;2022-09-30T03:27:05;8.80;99.90
9450;DHT22;4763;48.370;10.874;2022-09-30T03:29:42;8.90;99.90
9450;DHT22;4763;48.370;10.874;2022-09-30T03:32:23;8.80;99.90
9450;DHT22;4763;48.370;10.874;2022-09-30T03:35:01;8.90;99.90
9450;DHT22;4763;48.370;10.874;2022-09-30T03:37:38;8.90;99.90
9450;DHT22;4763;48.370;10.874;2022-09-30T03:40:16;8.90;99.90
9450;DHT22;4763;48.370;10.874;2022-09-30T03:42:53;8.90;99.90
9450;DHT22;4763;48.370;10.874;2022-09-30T03:45:26;8.90;99.90
9450;DHT22;4763;48.370;10.874;2022-09-30T03:47:57;8.90;99.90
9450;DHT22;4763;48.370;10.874;2022-09-30T03:50:27;8.90;99.90
9450;DHT22;4763;48.370;10.874;2022-09-30T03:52:57;8.90;99.90
9450;DHT22;4763;48.370;10.874;2022-09-30T03:55:24;8.80;99.90
9450;DHT22;4763;48.370;10.874;2022-09-30T03:57:52;8.90;99.90
9450;DHT22;4763;48.370;10.874;2022-09-30T04:00:19;8.90;99.90
9450;DHT22;4763;48.370;10.874;2022-09-30T04:02:46;8.90;99.90
9450;DHT22;4763;48.370;10.874;2022-09-30T04:05:13;8.80;99.90
9450;DHT22;4763;48.370;10.874;2022-09-30T04:07:40;8.90;99.90
9450;DHT22;4763;48.370;10.874;2022-09-30T04:10:09;8.90;99.90
9450;DHT22;4763;48.370;10.874;2022-09-30T04:12:37;8.80;99.90
9450;DHT22;4763;48.370;10.874;2022-09-30T04:15:04;8.80;99.90
9450;DHT22;4763;48.370;10.874;2022-09-30T04:17:31;8.80;99.90
9450;DHT22;4763;48.370;10.874;2022-09-30T04:19:58;8.80;99.90
9450;DHT22;4763;48.370;10.874;2022-09-30T04:22:25;8.80;99.90
9450;DHT22;4763;48.370;10.874;2022-09-30T04:24:52;8.80;99.90
9450;DHT22;4763;48.370;10.874;2022-09-30T04:27:20;8.70;99.90
9450;DHT22;4763;48.370;10.874;2022-09-30T04:29:47;8.80;99.90
9450;DHT22;4763;48.370;10.874;2022-09-30T04:32:14;8.70;99.90
9450;DHT22;4763;48.370;10.874;2022-09-30T04:34:41;8.70;99.90
9450;DHT22;4763;48.370;10.874;2022-09-30T04:37:08;8.70;99.90
9450;DHT22;4763;48.370;10.874;2022-09-30T04:39:35;8.60;99.90
9450;DHT22;4763;48.370;10.874;2022-09-30T04:42:02;8.70;99.90
9450;DHT22;4763;48.370;10.874;2022-09-30T04:44:30;8.60;99.90
9450;DHT22;4763;48.370;10.874;2022-09-30T04:46:57;8.60;99.90
9450;DHT22;4763;48.370;10.874;2022-09-30T04:49:25;8.60;99.90
9450;DHT22;4763;48.370;10.874;2022-09-30T04:51:52;8.60;99.90
9450;DHT22;4763;48.370;10.874;2022-09-30T04:54:19;8.60;99.90
9450;DHT22;4763;48.370;10.874;2022-09-30T04:56:46;8.60;99.90
9450;DHT22;4763;48.370;10.874;2022-09-30T04:59:13;8.60;99.90
9450;DHT22;4763;48.370;10.874;2022-09-30T05:01:41;8.50;99.90
9450;DHT22;4763;48.370;10.874;2022-09-30T05:04:09;8.50;99.90
9450;DHT22;4763;48.370;10.874;2022-09-30T05:06:36;8.50;99.90
9450;DHT22;4763;48.370;10.874;2022-09-30T05:09:04;8.40;99.90
9450;DHT22;4763;48.370;10.874;2022-09-30T05:11:31;8.40;99.90
9450;DHT22;4763;48.370;10.874;2022-09-30T05:14:05;8.40;99.90
9450;DHT22;4763;48.370;10.874;2022-09-30T05:16:36;8.30;99.90
9450;DHT22;4763;48.370;10.874;2022-09-30T05:19:04;8.40;99.90
9450;DHT22;4763;48.370;10.874;2022-09-30T05:21:31;8.40;99.90
9450;DHT22;4763;48.370;10.874;2022-09-30T05:23:58;8.40;99.90
9450;DHT22;4763;48.370;10.874;2022-09-30T05:26:25;8.40;99.90
9450;DHT22;4763;48.370;10.874;2022-09-30T05:28:52;8.40;99.90
9450;DHT22;4763;48.370;10.874;2022-09-30T05:31:19;8.50;99.90
9450;DHT22;4763;48.370;10.874;2022-09-30T05:33:46;8.40;99.90
9450;DHT22;4763;48.370;10.874;2022-09-30T05:36:14;8.50;99.90
9450;DHT22;4763;48.370;10.874;2022-09-30T05:38:42;8.50;99.90
9450;DHT22;4763;48.370;10.874;2022-09-30T05:41:10;8.50;99.90
9450;DHT22;4763;48.370;10.874;2022-09-30T05:43:38;8.60;99.90
9450;DHT22;4763;48.370;10.874;2022-09-30T05:46:05;8.50;99.90
9450;DHT22;4763;48.370;10.874;2022-09-30T05:48:32;8.60;99.90
9450;DHT22;4763;48.370;10.874;2022-09-30T05:50:59;8.60;99.90
9450;DHT22;4763;48.370;10.874;2022-09-30T05:53:29;8.60;99.90
9450;DHT22;4763;48.370;10.874;2022-09-30T05:55:57;8.60;99.90
9450;DHT22;4763;48.370;10.874;2022-09-30T05:58:24;8.70;99.90
9450;DHT22;4763;48.370;10.874;2022-09-30T06:00:52;8.70;99.90
9450;DHT22;4763;48.370;10.874;2022-09-30T06:03:19;8.80;99.90
9450;DHT22;4763;48.370;10.874;2022-09-30T06:05:46;8.70;99.90
9450;DHT22;4763;48.370;10.874;2022-09-30T06:08:13;8.80;99.90
9450;DHT22;4763;48.370;10.874;2022-09-30T06:10:43;8.70;99.90
9450;DHT22;4763;48.370;10.874;2022-09-30T06:13:10;8.70;99.90
9450;DHT22;4763;48.370;10.874;2022-09-30T06:15:37;8.80;99.90
9450;DHT22;4763;48.370;10.874;2022-09-30T06:18:07;8.80;99.90
9450;DHT22;4763;48.370;10.874;2022-09-30T06:20:34;8.70;99.90
9450;DHT22;4763;48.370;10.874;2022-09-30T06:23:02;8.80;99.90
9450;DHT22;4763;48.370;10.874;2022-09-30T06:25:30;8.80;99.90
9450;DHT22;4763;48.370;10.874;2022-09-30T06:28:00;8.70;99.90
9450;DHT22;4763;48.370;10.874;2022-09-30T06:30:27;8.70;99.90
9450;DHT22;4763;48.370;10.874;2022-09-30T06:32:56;8.80;99.90
9450;DHT22;4763;48.370;10.874;2022-09-30T06:35:23;8.90;99.90
9450;DHT22;4763;48.370;10.874;2022-09-30T06:37:53;8.90;99.90
9450;DHT22;4763;48.370;10.874;2022-09-30T06:40:29;8.90;99.90
9450;DHT22;4763;48.370;10.874;2022-09-30T06:42:58;8.90;99.90
9450;DHT22;4763;48.370;10.874;2022-09-30T06:45:26;8.90;99.90
9450;DHT22;4763;48.370;10.874;2022-09-30T06:47:56;9.00;99.90
9450;DHT22;4763;48.370;10.874;2022-09-30T06:50:23;8.90;99.90
9450;DHT22;4763;48.370;10.874;2022-09-30T06:52:49;8.90;99.90
9450;DHT22;4763;48.370;10.874;2022-09-30T06:55:16;8.80;99.90
9450;DHT22;4763;48.370;10.874;2022-09-30T06:57:47;8.80;99.90
9450;DHT22;4763;48.370;10.874;2022-09-30T07:00:15;8.80;99.90
9450;DHT22;4763;48.370;10.874;2022-09-30T07:02:42;8.80;99.90
9450;DHT22;4763;48.370;10.874;2022-09-30T07:05:09;8.80;99.90
9450;DHT22;4763;48.370;10.874;2022-09-30T07:07:37;8.90;99.90
9450;DHT22;4763;48.370;10.874;2022-09-30T07:10:04;9.00;99.90
9450;DHT22;4763;48.370;10.874;2022-09-30T07:12:31;9.10;99.90
9450;DHT22;4763;48.370;10.874;2022-09-30T07:14:58;9.10;99.90
9450;DHT22;4763;48.370;10.874;2022-09-30T07:17:28;9.20;99.90
9450;DHT22;4763;48.370;10.874;2022-09-30T07:19:55;9.30;99.90
9450;DHT22;4763;48.370;10.874;2022-09-30T07:22:23;9.30;99.90
9450;DHT22;4763;48.370;10.874;2022-09-30T07:24:53;9.30;99.90
9450;DHT22;4763;48.370;10.874;2022-09-30T07:27:20;9.30;99.90
9450;DHT22;4763;48.370;10.874;2022-09-30T07:29:47;9.20;99.90
9450;DHT22;4763;48.370;10.874;2022-09-30T07:32:14;9.30;99.90
9450;DHT22;4763;48.370;10.874;2022-09-30T07:34:43;9.40;99.90
9450;DHT22;4763;48.370;10.874;2022-09-30T07:37:10;9.40;99.90
9450;DHT22;4763;48.370;10.874;2022-09-30T07:39:39;9.40;99.90
9450;DHT22;4763;48.370;10.874;2022-09-30T07:42:06;9.40;99.90
9450;DHT22;4763;48.370;10.874;2022-09-30T07:44:33;9.50;99.90
9450;DHT22;4763;48.370;10.874;2022-09-30T07:47:01;9.50;99.90
9450;DHT22;4763;48.370;10.874;2022-09-30T07:49:29;9.60;99.90
9450;DHT22;4763;48.370;10.874;2022-09-30T07:51:58;9.80;99.90
9450;DHT22;4763;48.370;10.874;2022-09-30T07:54:27;9.70;99.90
9450;DHT22;4763;48.370;10.874;2022-09-30T07:56:54;9.80;99.90
9450;DHT22;4763;48.370;10.874;2022-09-30T07:59:21;9.70;99.90
9450;DHT22;4763;48.370;10.874;2022-09-30T08:01:49;9.70;99.90
9450;DHT22;4763;48.370;10.874;2022-09-30T08:04:17;9.80;99.90
9450;DHT22;4763;48.370;10.874;2022-09-30T08:06:48;9.90;99.90
9450;DHT22;4763;48.370;10.874;2022-09-30T08:09:18;9.90;99.90
9450;DHT22;4763;48.370;10.874;2022-09-30T08:11:46;9.90;99.90
9450;DHT22;4763;48.370;10.874;2022-09-30T08:14:14;10.10;99.90
9450;DHT22;4763;48.370;10.874;2022-09-30T08:16:42;10.20;99.90
9450;DHT22;4763;48.370;10.874;2022-09-30T08:19:13;10.20;99.90
9450;DHT22;4763;48.370;10.874;2022-09-30T08:21:40;10.10;99.90
9450;DHT22;4763;48.370;10.874;2022-09-30T08:24:07;10.10;99.90
9450;DHT22;4763;48.370;10.874;2022-09-30T08:26:35;10.00;99.90
9450;DHT22;4763;48.370;10.874;2022-09-30T08:29:02;10.00;99.90
9450;DHT22;4763;48.370;10.874;2022-09-30T08:31:33;9.90;99.90
9450;DHT22;4763;48.370;10.874;2022-09-30T08:34:00;10.10;99.90
9450;DHT22;4763;48.370;10.874;2022-09-30T08:36:28;10.30;99.90
9450;DHT22;4763;48.370;10.874;2022-09-30T08:38:55;10.40;99.90
9450;DHT22;4763;48.370;10.874;2022-09-30T08:41:58;10.60;99.90
9450;DHT22;4763;48.370;10.874;2022-09-30T08:44:40;10.70;99.90
9450;DHT22;4763;48.370;10.874;2022-09-30T08:47:31;10.80;99.90
9450;DHT22;4763;48.370;10.874;2022-09-30T08:50:10;10.90;99.90
9450;DHT22;4763;48.370;10.874;2022-09-30T08:52:42;11.00;99.90
9450;DHT22;4763;48.370;10.874;2022-09-30T08:55:15;11.10;99.90
9450;DHT22;4763;48.370;10.874;2022-09-30T08:57:45;11.10;99.90
9450;DHT22;4763;48.370;10.874;2022-09-30T09:00:15;11.20;99.90
9450;DHT22;4763;48.370;10.874;2022-09-30T09:02:45;11.30;99.90
9450;DHT22;4763;48.370;10.874;2022-09-30T09:05:21;11.10;99.90
9450;DHT22;4763;48.370;10.874;2022-09-30T09:07:57;11.00;99.90
9450;DHT22;4763;48.370;10.874;2022-09-30T09:10:33;11.20;99.90
9450;DHT22;4763;48.370;10.874;2022-09-30T09:13:12;11.30;99.90
9450;DHT22;4763;48.370;10.874;2022-09-30T09:15:53;11.40;99.90
9450;DHT22;4763;48.370;10.874;2022-09-30T09:18:42;11.50;99.90
9450;DHT22;4763;48.370;10.874;2022-09-30T09:21:20;11.40;99.90
9450;DHT22;4763;48.370;10.874;2022-09-30T09:23:48;11.40;99.90
9450;DHT22;4763;48.370;10.874;2022-09-30T09:26:16;11.40;99.90
9450;DHT22;4763;48.370;10.874;2022-09-30T09:28:55;11.50;99.90
9450;DHT22;4763;48.370;10.874;2022-09-30T09:31:25;11.50;99.90
9450;DHT22;4763;48.370;10.874;2022-09-30T09:33:55;11.70;99.90
9450;DHT22;4763;48.370;10.874;2022-09-30T09:36:34;11.60;99.90
9450;DHT22;4763;48.370;10.874;2022-09-30T09:39:14;11.70;99.90
9450;DHT22;4763;48.370;10.874;2022-09-30T09:41:53;11.80;99.90
9450;DHT22;4763;48.370;10.874;2022-09-30T09:44:29;11.80;99.90
9450;DHT22;4763;48.370;10.874;2022-09-30T09:47:00;11.80;99.90
9450;DHT22;4763;48.370;10.874;2022-09-30T09:49:33;11.90;99.90
9450;DHT22;4763;48.370;10.874;2022-09-30T09:52:25;11.70;99.90
9450;DHT22;4763;48.370;10.874;2022-09-30T09:54:54;11.70;99.90
9450;DHT22;4763;48.370;10.874;2022-09-30T09:57:23;11.80;99.90
9450;DHT22;4763;48.370;10.874;2022-09-30T09:59:58;11.90;99.90
9450;DHT22;4763;48.370;10.874;2022-09-30T10:02:57;12.00;99.90
9450;DHT22;4763;48.370;10.874;2022-09-30T10:05:25;11.90;99.90
9450;DHT22;4763;48.370;10.874;2022-09-30T10:08:07;11.90;99.90
9450;DHT22;4763;48.370;10.874;2022-09-30T10:10:43;12.10;99.90
9450;DHT22;4763;48.370;10.874;2022-09-30T10:13:15;12.10;99.90
9450;DHT22;4763;48.370;10.874;2022-09-30T10:15:45;12.10;99.90
9450;DHT22;4763;48.370;10.874;2022-09-30T10:18:19;12.20;99.90
9450;DHT22;4763;48.370;10.874;2022-09-30T10:20:53;12.30;99.90
9450;DHT22;4763;48.370;10.874;2022-09-30T10:23:25;12.20;99.90
9450;DHT22;4763;48.370;10.874;2022-09-30T10:25:58;12.40;99.90
9450;DHT22;4763;48.370;10.874;2022-09-30T10:28:27;12.30;99.90
9450;DHT22;4763;48.370;10.874;2022-09-30T10:30:59;12.50;99.90
9450;DHT22;4763;48.370;10.874;2022-09-30T10:33:30;12.60;99.90
9450;DHT22;4763;48.370;10.874;2022-09-30T10:36:03;12.60;99.90
9450;DHT22;4763;48.370;10.874;2022-09-30T10:38:31;12.70;99.90
9450;DHT22;4763;48.370;10.874;2022-09-30T10:41:00;12.80;99.90
9450;DHT22;4763;48.370;10.874;2022-09-30T10:43:31;12.80;99.90
9450;DHT22;4763;48.370;10.874;2022-09-30T10:46:02;12.70;99.90
9450;DHT22;4763;48.370;10.874;2022-09-30T10:48:33;12.40;99.90
9450;DHT22;4763;48.370;10.874;2022-09-30T10:51:00;12.30;99.90
9450;DHT22;4763;48.370;10.874;2022-09-30T10:53:30;12.40;99.90
9450;DHT22;4763;48.370;10.874;2022-09-30T10:55:58;12.50;99.90
9450;DHT22;4763;48.370;10.874;2022-09-30T10:58:37;12.60;99.90
9450;DHT22;4763;48.370;10.874;2022-09-30T11:01:16;12.50;99.90
9450;DHT22;4763;48.370;10.874;2022-09-30T11:03:53;12.70;99.90
9450;DHT22;4763;48.370;10.874;2022-09-30T11:06:22;12.60;99.90
9450;DHT22;4763;48.370;10.874;2022-09-30T11:08:54;12.50;99.90
9450;DHT22;4763;48.370;10.874;2022-09-30T11:11:26;12.50;99.90
9450;DHT22;4763;48.370;10.874;2022-09-30T11:13:56;12.50;99.90
9450;DHT22;4763;48.370;10.874;2022-09-30T11:16:46;12.70;99.90
9450;DHT22;4763;48.370;10.874;2022-09-30T11:19:21;12.80;99.90
9450;DHT22;4763;48.370;10.874;2022-09-30T11:21:52;12.80;99.90
9450;DHT22;4763;48.370;10.874;2022-09-30T11:24:27;12.80;99.90
9450;DHT22;4763;48.370;10.874;2022-09-30T11:27:03;12.90;99.90
9450;DHT22;4763;48.370;10.874;2022-09-30T11:29:52;13.00;99.90
9450;DHT22;4763;48.370;10.874;2022-09-30T11:32:34;13.10;99.90
9450;DHT22;4763;48.370;10.874;2022-09-30T11:35:19;13.20;99.90
9450;DHT22;4763;48.370;10.874;2022-09-30T11:38:05;13.20;99.90
9450;DHT22;4763;48.370;10.874;2022-09-30T11:40:37;13.40;99.90
9450;DHT22;4763;48.370;10.874;2022-09-30T11:43:13;13.30;99.90
9450;DHT22;4763;48.370;10.874;2022-09-30T11:46:00;13.40;99.90
9450;DHT22;4763;48.370;10.874;2022-09-30T11:48:43;13.40;99.90
9450;DHT22;4763;48.370;10.874;2022-09-30T11:51:19;13.40;99.90
9450;DHT22;4763;48.370;10.874;2022-09-30T11:53:55;13.50;99.90
9450;DHT22;4763;48.370;10.874;2022-09-30T11:56:36;13.50;99.90
9450;DHT22;4763;48.370;10.874;2022-09-30T11:59:10;13.60;99.90
9450;DHT22;4763;48.370;10.874;2022-09-30T12:01:42;13.60;99.90
9450;DHT22;4763;48.370;10.874;2022-09-30T12:04:15;13.80;99.90
9450;DHT22;4763;48.370;10.874;2022-09-30T12:06:49;13.60;99.90
9450;DHT22;4763;48.370;10.874;2022-09-30T12:09:26;13.80;99.90
9450;DHT22;4763;48.370;10.874;2022-09-30T12:11:57;13.90;99.90
9450;DHT22;4763;48.370;10.874;2022-09-30T12:14:30;14.00;99.90
9450;DHT22;4763;48.370;10.874;2022-09-30T12:17:00;14.20;99.90
9450;DHT22;4763;48.370;10.874;2022-09-30T12:19:33;14.30;99.90
9450;DHT22;4763;48.370;10.874;2022-09-30T12:22:08;14.20;99.90
9450;DHT22;4763;48.370;10.874;2022-09-30T12:24:38;14.30;99.90
9450;DHT22;4763;48.370;10.874;2022-09-30T12:27:14;14.40;99.90
9450;DHT22;4763;48.370;10.874;2022-09-30T12:29:49;14.70;99.90
9450;DHT22;4763;48.370;10.874;2022-09-30T12:33:02;14.70;99.90
9450;DHT22;4763;48.370;10.874;2022-09-30T12:35:54;14.80;99.90
9450;DHT22;4763;48.370;10.874;2022-09-30T12:38:44;14.70;99.90
9450;DHT22;4763;48.370;10.874;2022-09-30T12:41:28;14.90;99.90
9450;DHT22;4763;48.370;10.874;2022-09-30T12:47:07;15.00;99.90
9450;DHT22;4763;48.370;10.874;2022-09-30T12:49:37;15.10;99.90
9450;DHT22;4763;48.370;10.874;2022-09-30T12:52:11;15.10;99.90
9450;DHT22;4763;48.370;10.874;2022-09-30T12:54:41;15.10;99.90
9450;DHT22;4763;48.370;10.874;2022-09-30T12:57:09;14.90;99.90
9450;DHT22;4763;48.370;10.874;2022-09-30T12:59:42;14.90;99.90
9450;DHT22;4763;48.370;10.874;2022-09-30T13:02:26;14.80;99.90
9450;DHT22;4763;48.370;10.874;2022-09-30T13:08:30;14.80;99.90
9450;DHT22;4763;48.370;10.874;2022-09-30T13:10:59;14.80;99.90
9450;DHT22;4763;48.370;10.874;2022-09-30T13:13:30;14.80;99.90
9450;DHT22;4763;48.370;10.874;2022-09-30T13:15:59;14.90;99.90
9450;DHT22;4763;48.370;10.874;2022-09-30T13:18:58;15.00;99.90
9450;DHT22;4763;48.370;10.874;2022-09-30T13:21:25;14.80;99.90
9450;DHT22;4763;48.370;10.874;2022-09-30T13:23:54;14.70;99.90
9450;DHT22;4763;48.370;10.874;2022-09-30T13:26:40;14.80;99.90
9450;DHT22;4763;48.370;10.874;2022-09-30T13:29:46;14.80;99.90
9450;DHT22;4763;48.370;10.874;2022-09-30T13:32:29;14.60;99.90
9450;DHT22;4763;48.370;10.874;2022-09-30T13:34:57;14.40;99.90
9450;DHT22;4763;48.370;10.874;2022-09-30T13:37:38;14.30;99.90
9450;DHT22;4763;48.370;10.874;2022-09-30T13:40:21;14.30;99.90
9450;DHT22;4763;48.370;10.874;2022-09-30T13:42:54;14.30;99.90
9450;DHT22;4763;48.370;10.874;2022-09-30T13:45:28;14.40;99.90
9450;DHT22;4763;48.370;10.874;2022-09-30T13:48:04;14.50;99.90
9450;DHT22;4763;48.370;10.874;2022-09-30T13:50:40;14.50;99.90
9450;DHT22;4763;48.370;10.874;2022-09-30T13:53:26;14.60;99.90
9450;DHT22;4763;48.370;10.874;2022-09-30T13:55:57;14.50;99.90
9450;DHT22;4763;48.370;10.874;2022-09-30T13:59:14;14.30;99.90
9450;DHT22;4763;48.370;10.874;2022-09-30T14:01:57;14.30;99.90
9450;DHT22;4763;48.370;10.874;2022-09-30T14:04:48;14.10;99.90
9450;DHT22;4763;48.370;10.874;2022-09-30T14:07:27;13.90;99.90
9450;DHT22;4763;48.370;10.874;2022-09-30T14:10:20;14.00;99.90
9450;DHT22;4763;48.370;10.874;2022-09-30T14:13:03;13.80;99.90
9450;DHT22;4763;48.370;10.874;2022-09-30T14:15:55;13.90;99.90
9450;DHT22;4763;48.370;10.874;2022-09-30T14:18:56;13.90;99.90
9450;DHT22;4763;48.370;10.874;2022-09-30T14:21:33;14.10;99.90
9450;DHT22;4763;48.370;10.874;2022-09-30T14:24:08;14.20;99.90
9450;DHT22;4763;48.370;10.874;2022-09-30T14:29:33;14.30;99.90
9450;DHT22;4763;48.370;10.874;2022-09-30T14:32:10;14.50;99.90
9450;DHT22;4763;48.370;10.874;2022-09-30T14:34:38;14.80;99.90
9450;DHT22;4763;48.370;10.874;2022-09-30T14:37:13;15.30;99.90
9450;DHT22;4763;48.370;10.874;2022-09-30T14:39:41;15.70;99.90
9450;DHT22;4763;48.370;10.874;2022-09-30T14:42:13;16.10;99.90
9450;DHT22;4763;48.370;10.874;2022-09-30T14:44:45;16.30;99.90
9450;DHT22;4763;48.370;10.874;2022-09-30T14:47:13;16.40;99.90
9450;DHT22;4763;48.370;10.874;2022-09-30T14:49:41;16.40;99.90
9450;DHT22;4763;48.370;10.874;2022-09-30T14:52:33;16.70;99.90
9450;DHT22;4763;48.370;10.874;2022-09-30T14:55:01;16.80;99.90
9450;DHT22;4763;48.370;10.874;2022-09-30T14:57:29;16.80;99.90
9450;DHT22;4763;48.370;10.874;2022-09-30T15:00:23;16.50;99.90
9450;DHT22;4763;48.370;10.874;2022-09-30T15:02:52;16.40;99.90
9450;DHT22;4763;48.370;10.874;2022-09-30T15:05:19;16.10;99.90
9450;DHT22;4763;48.370;10.874;2022-09-30T15:07:46;16.10;99.90
9450;DHT22;4763;48.370;10.874;2022-09-30T15:10:18;16.10;99.90
9450;DHT22;4763;48.370;10.874;2022-09-30T15:12:47;15.90;99.90
9450;DHT22;4763;48.370;10.874;2022-09-30T15:15:32;15.70;99.90
9450;DHT22;4763;48.370;10.874;2022-09-30T15:20:42;15.20;99.90
9450;DHT22;4763;48.370;10.874;2022-09-30T15:23:15;15.00;99.90
9450;DHT22;4763;48.370;10.874;2022-09-30T15:25:43;14.80;99.90
9450;DHT22;4763;48.370;10.874;2022-09-30T15:28:10;14.70;99.90
9450;DHT22;4763;48.370;10.874;2022-09-30T15:30:39;14.60;99.90
9450;DHT22;4763;48.370;10.874;2022-09-30T15:33:14;14.30;99.90
9450;DHT22;4763;48.370;10.874;2022-09-30T15:35:42;14.30;99.90
9450;DHT22;4763;48.370;10.874;2022-09-30T15:38:15;14.20;99.90
9450;DHT22;4763;48.370;10.874;2022-09-30T15:40:47;14.10;99.90
9450;DHT22;4763;48.370;10.874;2022-09-30T15:43:30;14.00;99.90
9450;DHT22;4763;48.370;10.874;2022-09-30T15:46:25;13.90;99.90
9450;DHT22;4763;48.370;10.874;2022-09-30T15:48:54;13.80;99.90
9450;DHT22;4763;48.370;10.874;2022-09-30T15:51:24;13.90;99.90
9450;DHT22;4763;48.370;10.874;2022-09-30T15:53:52;13.80;99.90
9450;DHT22;4763;48.370;10.874;2022-09-30T15:56:27;13.70;99.90
9450;DHT22;4763;48.370;10.874;2022-09-30T15:58:58;13.70;99.90
9450;DHT22;4763;48.370;10.874;2022-09-30T16:01:33;13.60;99.90
9450;DHT22;4763;48.370;10.874;2022-09-30T16:04:03;13.50;99.90
9450;DHT22;4763;48.370;10.874;2022-09-30T16:06:41;13.50;99.90
9450;DHT22;4763;48.370;10.874;2022-09-30T16:09:20;13.50;99.90
9450;DHT22;4763;48.370;10.874;2022-09-30T16:11:56;13.30;99.90
9450;DHT22;4763;48.370;10.874;2022-09-30T16:14:26;13.40;99.90
9450;DHT22;4763;48.370;10.874;2022-09-30T16:16:58;13.30;99.90
9450;DHT22;4763;48.370;10.874;2022-09-30T16:19:26;13.20;99.90
9450;DHT22;4763;48.370;10.874;2022-09-30T16:21:55;13.10;99.90
9450;DHT22;4763;48.370;10.874;2022-09-30T16:24:44;13.00;99.90
9450;DHT22;4763;48.370;10.874;2022-09-30T16:27:28;13.10;99.90
9450;DHT22;4763;48.370;10.874;2022-09-30T16:29:57;13.00;99.90
9450;DHT22;4763;48.370;10.874;2022-09-30T16:32:29;13.00;99.90
9450;DHT22;4763;48.370;10.874;2022-09-30T16:34:59;13.00;99.90
9450;DHT22;4763;48.370;10.874;2022-09-30T16:37:26;12.90;99.90
9450;DHT22;4763;48.370;10.874;2022-09-30T16:39:54;12.90;99.90
9450;DHT22;4763;48.370;10.874;2022-09-30T16:42:23;12.90;99.90
9450;DHT22;4763;48.370;10.874;2022-09-30T16:44:50;12.90;99.90